CYNR

METAR CYNR 281500Z AUTO 22003KT 9SM CLR 12/M01 A2992 RMK AO2 SLP133
METAR
LOCATION
CYNR
DATE - TIME
281500Z
WIND
220 TRUE @ 3 KNOTS
VISIBILITY
9SM
RUNWAY VISUAL RANGE
NOT REPORTED
WEATHER
CLOUDINESS
CLR
TEMP / DEWPOINT
12 ºC / -1 ºC
ALTIMETER
29.92 in. Hg
RECENT WEATHER
NOT REPORTED
WIND SHEAR
NOT REPORTED
REMARKS
RMK AO2 SLP133
SEA LEVEL PRESSURE: hPa

CYNR

METAR CYNR 281400Z AUTO 18007KT 9SM CLR 09/M00 A2993 RMK AO2 SLP139
METAR
LOCATION
CYNR
DATE - TIME
281400Z
WIND
180 TRUE @ 7 KNOTS
VISIBILITY
9SM
RUNWAY VISUAL RANGE
NOT REPORTED
WEATHER
CLOUDINESS
CLR
TEMP / DEWPOINT
9 ºC / -0 ºC
ALTIMETER
29.93 in. Hg
RECENT WEATHER
NOT REPORTED
WIND SHEAR
NOT REPORTED
REMARKS
RMK AO2 SLP139
SEA LEVEL PRESSURE: hPa

CYNR

METAR CYNR 281300Z AUTO 18007KT 9SM CLR 07/M01 A2994 RMK AO2 SLP143
METAR
LOCATION
CYNR
DATE - TIME
281300Z
WIND
180 TRUE @ 7 KNOTS
VISIBILITY
9SM
RUNWAY VISUAL RANGE
NOT REPORTED
WEATHER
CLOUDINESS
CLR
TEMP / DEWPOINT
7 ºC / -1 ºC
ALTIMETER
29.94 in. Hg
RECENT WEATHER
NOT REPORTED
WIND SHEAR
NOT REPORTED
REMARKS
RMK AO2 SLP143
SEA LEVEL PRESSURE: hPa

Your time UTC time
 
 
Weather data provided by AXYS Technologies Inc., www.axystechnologies.com
 
Station History